createdAt,value
2019-01-09T00:00:11.883Z,5.20
2019-01-09T00:02:44.182Z,5.20
2019-01-09T00:05:15.456Z,5.20
2019-01-09T00:07:47.019Z,5.20
2019-01-09T00:10:30.872Z,5.20
2019-01-09T00:13:02.211Z,5.10
2019-01-09T00:15:33.241Z,5.10
2019-01-09T00:18:04.117Z,5.00
2019-01-09T00:20:35.078Z,4.90
2019-01-09T00:23:06.089Z,4.90
2019-01-09T00:25:36.821Z,4.90
2019-01-09T00:28:08.150Z,5.00
2019-01-09T00:30:39.236Z,4.90
2019-01-09T00:33:09.995Z,4.90
2019-01-09T00:35:41.271Z,4.90
2019-01-09T00:38:12.606Z,4.90
2019-01-09T00:40:43.679Z,4.90
2019-01-09T00:43:14.572Z,4.80
2019-01-09T00:45:45.211Z,4.80
2019-01-09T00:48:17.131Z,4.80
2019-01-09T00:50:47.999Z,4.80
2019-01-09T00:53:19.583Z,4.70
2019-01-09T00:55:50.551Z,4.80
2019-01-09T00:58:21.315Z,4.80
2019-01-09T01:00:52.374Z,4.80
2019-01-09T01:03:31.261Z,4.80
2019-01-09T01:06:21.516Z,4.80
2019-01-09T01:09:13.346Z,4.90
2019-01-09T01:11:48.591Z,4.90
2019-01-09T01:14:25.853Z,4.90
2019-01-09T01:17:19.218Z,4.90
2019-01-09T01:20:03.795Z,4.90
2019-01-09T01:22:56.324Z,4.90
2019-01-09T01:25:57.674Z,4.80
2019-01-09T01:28:47.075Z,4.70
2019-01-09T01:31:50.491Z,4.70
2019-01-09T01:34:35.982Z,4.70
2019-01-09T01:37:33.962Z,4.60
2019-01-09T01:40:10.901Z,4.60
2019-01-09T01:43:06.902Z,4.60
2019-01-09T01:45:51.099Z,4.60
2019-01-09T01:48:44.755Z,4.50
2019-01-09T01:51:23.028Z,4.50
2019-01-09T01:54:04.394Z,4.40
2019-01-09T01:56:42.218Z,4.40
2019-01-09T01:59:14.806Z,4.40
2019-01-09T02:01:56.200Z,4.40
2019-01-09T02:04:45.829Z,4.30
2019-01-09T02:07:45.458Z,4.30
2019-01-09T02:10:52.762Z,4.30
2019-01-09T02:13:36.567Z,4.20
2019-01-09T02:16:39.314Z,4.20
2019-01-09T02:19:33.856Z,4.20
2019-01-09T02:22:33.168Z,4.20
2019-01-09T02:25:20.412Z,4.20
2019-01-09T02:27:55.729Z,4.10
2019-01-09T02:30:37.156Z,4.20
2019-01-09T02:33:09.061Z,4.20
2019-01-09T02:35:41.021Z,4.30
2019-01-09T02:38:13.699Z,4.30
2019-01-09T02:40:44.692Z,4.30
2019-01-09T02:43:15.924Z,4.40
2019-01-09T02:45:46.459Z,4.40
2019-01-09T02:48:17.462Z,4.40
2019-01-09T02:50:48.499Z,4.40
2019-01-09T02:53:19.464Z,4.40
2019-01-09T02:55:50.518Z,4.40
2019-01-09T02:58:21.699Z,4.40
2019-01-09T03:00:52.732Z,4.40
2019-01-09T03:03:23.907Z,4.50
2019-01-09T03:05:54.897Z,4.40
2019-01-09T03:08:25.903Z,4.40
2019-01-09T03:10:56.475Z,4.40
2019-01-09T03:13:27.711Z,4.40
2019-01-09T03:15:58.633Z,4.40
2019-01-09T03:18:29.597Z,4.40
2019-01-09T03:21:00.401Z,4.40
2019-01-09T03:23:31.837Z,4.50
2019-01-09T03:26:02.873Z,4.50
2019-01-09T03:28:49.996Z,4.40
2019-01-09T03:31:21.139Z,4.30
2019-01-09T03:33:52.145Z,4.20
2019-01-09T03:36:32.331Z,4.20
2019-01-09T03:38:56.304Z,4.10
2019-01-09T03:41:26.829Z,4.00
2019-01-09T03:44:11.169Z,4.00
2019-01-09T03:46:42.639Z,3.90
2019-01-09T03:49:13.695Z,3.90
2019-01-09T03:51:44.487Z,3.90
2019-01-09T03:54:15.449Z,3.90
2019-01-09T03:56:46.520Z,3.90
2019-01-09T03:59:27.467Z,3.90
2019-01-09T04:01:58.652Z,3.80
2019-01-09T04:04:29.620Z,3.80
2019-01-09T04:07:00.997Z,3.80
2019-01-09T04:09:32.482Z,3.80
2019-01-09T04:12:03.457Z,3.70
2019-01-09T04:14:34.737Z,3.70
2019-01-09T04:17:05.984Z,3.70
2019-01-09T04:19:37.070Z,3.70
2019-01-09T04:22:08.527Z,3.60
2019-01-09T04:24:39.659Z,3.60
2019-01-09T04:27:11.007Z,3.60
2019-01-09T04:29:42.093Z,3.60
2019-01-09T04:32:13.132Z,3.60
2019-01-09T04:34:44.433Z,3.50
2019-01-09T04:37:25.357Z,3.50
2019-01-09T04:39:54.506Z,3.70
2019-01-09T04:42:25.058Z,3.80
2019-01-09T04:44:56.006Z,3.70
2019-01-09T04:47:37.166Z,3.60
2019-01-09T04:50:08.061Z,3.50
2019-01-09T04:52:49.257Z,3.50
2019-01-09T04:55:30.239Z,3.50
2019-01-09T04:58:01.545Z,3.40
2019-01-09T05:00:32.588Z,3.40
2019-01-09T05:03:03.453Z,3.40
2019-01-09T05:05:34.151Z,3.30
2019-01-09T05:08:05.272Z,3.30
2019-01-09T05:10:36.496Z,3.30
2019-01-09T05:13:07.532Z,3.30
2019-01-09T05:15:38.415Z,3.30
2019-01-09T05:18:19.704Z,3.30
2019-01-09T05:20:50.669Z,3.30
2019-01-09T05:23:21.704Z,3.30
2019-01-09T05:25:52.708Z,3.20
2019-01-09T05:28:23.746Z,3.20
2019-01-09T05:30:54.802Z,3.20
2019-01-09T05:33:26.265Z,3.30
2019-01-09T05:35:59.099Z,3.30
2019-01-09T05:38:43.511Z,3.30
2019-01-09T05:41:15.703Z,3.30
2019-01-09T05:43:46.731Z,3.30
2019-01-09T05:46:17.599Z,3.20
2019-01-09T05:48:48.854Z,3.20
2019-01-09T05:51:19.833Z,3.20
2019-01-09T05:53:50.529Z,3.20
2019-01-09T05:56:21.398Z,3.20
2019-01-09T05:58:52.719Z,3.20
2019-01-09T06:01:23.711Z,3.20
2019-01-09T06:03:54.716Z,3.20
2019-01-09T06:06:25.704Z,3.20
2019-01-09T06:08:57.113Z,3.20
2019-01-09T06:11:27.736Z,3.10
2019-01-09T06:13:58.741Z,3.10
2019-01-09T06:16:29.507Z,3.10
2019-01-09T06:19:10.212Z,3.10
2019-01-09T06:21:41.261Z,3.10
2019-01-09T06:24:22.260Z,3.10
2019-01-09T06:26:53.253Z,3.10
2019-01-09T06:29:34.584Z,3.10
2019-01-09T06:32:05.664Z,3.10
2019-01-09T06:34:36.351Z,3.10
2019-01-09T06:37:07.927Z,3.10
2019-01-09T06:39:48.903Z,3.10
2019-01-09T06:42:30.206Z,3.10
2019-01-09T06:45:10.683Z,3.10
2019-01-09T06:47:41.613Z,3.10
2019-01-09T06:50:14.235Z,3.10
2019-01-09T06:52:45.188Z,3.10
2019-01-09T06:55:16.733Z,3.20
2019-01-09T06:57:47.944Z,3.20
2019-01-09T07:00:18.668Z,3.20
2019-01-09T07:02:50.410Z,3.20
2019-01-09T07:05:21.796Z,3.20
2019-01-09T07:08:02.686Z,3.20
2019-01-09T07:10:33.995Z,3.20
2019-01-09T07:13:04.931Z,3.20
2019-01-09T07:15:36.090Z,3.30
2019-01-09T07:18:08.838Z,3.30
2019-01-09T07:20:39.867Z,3.30
2019-01-09T07:23:11.066Z,3.30
2019-01-09T07:25:54.084Z,3.30
2019-01-09T07:28:25.312Z,3.30
2019-01-09T07:30:55.962Z,3.40
2019-01-09T07:33:27.002Z,3.40
2019-01-09T07:35:58.582Z,3.50
2019-01-09T07:38:29.758Z,3.50
2019-01-09T07:41:01.253Z,3.50
2019-01-09T07:43:37.419Z,3.50
2019-01-09T07:46:08.647Z,3.50
2019-01-09T07:48:42.568Z,3.50
2019-01-09T07:51:13.760Z,3.50
2019-01-09T07:53:45.426Z,3.60
2019-01-09T07:56:17.396Z,3.70
2019-01-09T07:58:48.662Z,3.70
2019-01-09T08:01:20.487Z,3.70
2019-01-09T08:03:51.383Z,3.70
2019-01-09T08:06:35.807Z,3.70
2019-01-09T08:09:07.357Z,3.70
2019-01-09T08:11:38.504Z,3.60
2019-01-09T08:14:09.608Z,3.60
2019-01-09T08:16:41.061Z,3.60
2019-01-09T08:19:10.323Z,3.60
2019-01-09T08:21:51.513Z,3.60
2019-01-09T08:24:22.645Z,3.60
2019-01-09T08:27:03.963Z,3.60
2019-01-09T08:29:35.122Z,3.60
2019-01-09T08:32:05.921Z,3.60
2019-01-09T08:34:37.397Z,3.70
2019-01-09T08:37:11.687Z,3.70
2019-01-09T08:39:43.577Z,3.70
2019-01-09T08:42:14.815Z,3.70
2019-01-09T08:44:56.577Z,3.80
2019-01-09T08:47:27.710Z,3.80
2019-01-09T08:49:58.788Z,3.80
2019-01-09T08:52:38.642Z,3.90
2019-01-09T08:55:09.030Z,3.90
2019-01-09T08:57:40.142Z,4.10
2019-01-09T09:00:11.951Z,4.10
2019-01-09T09:02:45.866Z,4.10
2019-01-09T09:05:28.052Z,4.20
2019-01-09T09:08:11.720Z,4.20
2019-01-09T09:10:39.339Z,4.30
2019-01-09T09:13:11.866Z,4.30
2019-01-09T09:15:42.570Z,4.30
2019-01-09T09:18:13.677Z,4.30
2019-01-09T09:20:45.228Z,4.30
2019-01-09T09:23:16.311Z,4.30
2019-01-09T09:25:47.381Z,4.40
2019-01-09T09:28:18.069Z,4.40
2019-01-09T09:30:49.475Z,4.40
2019-01-09T09:33:21.193Z,4.50
2019-01-09T09:35:52.886Z,4.50
2019-01-09T09:38:23.947Z,4.50
2019-01-09T09:40:55.629Z,4.60
2019-01-09T09:43:27.840Z,4.60
2019-01-09T09:45:59.291Z,4.70
2019-01-09T09:48:30.310Z,4.80
2019-01-09T09:51:01.290Z,4.80
2019-01-09T09:53:32.504Z,4.80
2019-01-09T09:56:04.307Z,4.80
2019-01-09T09:58:35.946Z,4.90
2019-01-09T10:01:07.541Z,5.00
2019-01-09T10:03:38.872Z,5.00
2019-01-09T10:06:10.053Z,5.00
2019-01-09T10:08:41.244Z,5.10
2019-01-09T10:11:13.045Z,5.20
2019-01-09T10:13:44.923Z,5.20
2019-01-09T10:16:16.360Z,5.30
2019-01-09T10:18:54.753Z,5.50
2019-01-09T10:21:27.248Z,5.70
2019-01-09T10:23:58.233Z,5.80
2019-01-09T10:26:28.761Z,5.90
2019-01-09T10:29:00.036Z,6.00
2019-01-09T10:31:41.621Z,5.90
2019-01-09T10:34:13.083Z,5.90
2019-01-09T10:36:44.597Z,5.90
2019-01-09T10:39:15.540Z,6.00
2019-01-09T10:41:48.084Z,6.00
2019-01-09T10:44:19.968Z,6.20
2019-01-09T10:46:51.499Z,6.40
2019-01-09T10:49:22.592Z,6.40
2019-01-09T10:51:56.970Z,7.30
2019-01-09T10:54:28.820Z,8.30
2019-01-09T10:57:04.696Z,8.70
2019-01-09T10:59:34.804Z,9.40
2019-01-09T11:02:06.148Z,10.10
2019-01-09T11:04:37.187Z,10.30
2019-01-09T11:07:08.185Z,10.60
2019-01-09T11:09:39.989Z,10.60
2019-01-09T11:12:11.429Z,10.90
2019-01-09T11:14:42.094Z,11.20
2019-01-09T11:17:13.501Z,11.20
2019-01-09T11:19:44.793Z,10.70
2019-01-09T11:22:16.161Z,11.00
2019-01-09T11:24:47.341Z,11.40
2019-01-09T11:27:18.531Z,11.30
2019-01-09T11:29:59.436Z,11.70
2019-01-09T11:32:30.681Z,11.70
2019-01-09T11:35:01.889Z,11.40
2019-01-09T11:37:32.859Z,11.30
2019-01-09T11:40:05.142Z,11.30
2019-01-09T11:42:37.171Z,11.30
2019-01-09T11:45:13.750Z,11.40
2019-01-09T11:47:45.137Z,11.60
2019-01-09T11:50:16.982Z,11.40
2019-01-09T11:52:48.184Z,11.50
2019-01-09T11:55:29.224Z,12.00
2019-01-09T11:58:00.596Z,12.00
2019-01-09T12:00:31.331Z,11.90
2019-01-09T12:03:02.729Z,12.20
2019-01-09T12:05:33.771Z,12.40
2019-01-09T12:08:04.497Z,11.90
2019-01-09T12:10:35.301Z,11.40
2019-01-09T12:13:06.217Z,10.80
2019-01-09T12:15:37.368Z,10.80
2019-01-09T12:18:09.467Z,10.90
2019-01-09T12:20:40.411Z,11.30
2019-01-09T12:23:15.825Z,11.30
2019-01-09T12:25:46.382Z,10.70
2019-01-09T12:28:17.323Z,10.20
2019-01-09T12:30:47.937Z,10.30
2019-01-09T12:33:19.167Z,10.30
2019-01-09T12:35:50.309Z,10.10
2019-01-09T12:38:21.643Z,9.80
2019-01-09T12:40:52.953Z,9.70
2019-01-09T12:43:24.197Z,9.60
2019-01-09T12:45:55.309Z,9.80
2019-01-09T12:48:26.503Z,9.40
2019-01-09T12:50:57.477Z,8.80
2019-01-09T12:53:33.815Z,8.70
2019-01-09T12:56:01.004Z,8.50
2019-01-09T12:58:32.192Z,8.60
2019-01-09T13:01:03.239Z,8.40
2019-01-09T13:03:33.845Z,8.30
2019-01-09T13:06:04.789Z,8.60
2019-01-09T13:08:35.991Z,8.50
2019-01-09T13:11:07.205Z,8.30
2019-01-09T13:13:44.940Z,8.20
2019-01-09T13:16:16.266Z,7.90
2019-01-09T13:18:47.264Z,7.90
2019-01-09T13:21:18.216Z,7.80
2019-01-09T13:24:03.234Z,7.60
2019-01-09T13:26:34.260Z,7.60
2019-01-09T13:29:05.332Z,7.50
2019-01-09T13:31:39.273Z,7.50
2019-01-09T13:34:19.909Z,7.40
2019-01-09T13:36:51.658Z,7.40
2019-01-09T13:39:30.522Z,7.50
2019-01-09T13:42:12.172Z,7.40
2019-01-09T13:44:43.555Z,7.30
2019-01-09T13:47:14.566Z,7.70
2019-01-09T13:49:45.785Z,7.90
2019-01-09T13:52:18.460Z,8.00
2019-01-09T13:54:49.925Z,8.00
2019-01-09T13:57:21.324Z,8.00
2019-01-09T14:00:02.764Z,8.10
2019-01-09T14:02:33.819Z,8.30
2019-01-09T14:05:06.826Z,8.10
2019-01-09T14:07:48.011Z,8.20
2019-01-09T14:10:29.895Z,8.30
2019-01-09T14:13:01.170Z,8.40
2019-01-09T14:15:32.490Z,8.50
2019-01-09T14:18:01.592Z,8.60
2019-01-09T14:20:32.713Z,8.60
2019-01-09T14:23:03.609Z,8.60
2019-01-09T14:25:34.795Z,8.40
2019-01-09T14:28:05.972Z,8.40
2019-01-09T14:30:37.818Z,8.60
2019-01-09T14:33:09.749Z,8.70
2019-01-09T14:35:58.689Z,8.70
2019-01-09T14:38:37.405Z,8.80
2019-01-09T14:41:08.879Z,8.70
2019-01-09T14:43:41.686Z,8.80
2019-01-09T14:46:12.796Z,8.80
2019-01-09T14:48:43.381Z,8.70
2019-01-09T14:51:15.323Z,8.60
2019-01-09T14:53:56.519Z,8.40
2019-01-09T14:56:37.738Z,8.40
2019-01-09T14:59:18.776Z,8.60
2019-01-09T15:01:50.651Z,8.90
2019-01-09T15:04:21.995Z,8.90
2019-01-09T15:06:53.381Z,8.50
2019-01-09T15:09:24.793Z,8.00
2019-01-09T15:11:55.929Z,7.60
2019-01-09T15:14:27.481Z,7.20
2019-01-09T15:16:58.247Z,6.90
2019-01-09T15:19:39.638Z,6.70
2019-01-09T15:22:22.382Z,6.60
2019-01-09T15:25:04.067Z,6.40
2019-01-09T15:27:35.536Z,6.20
2019-01-09T15:30:17.352Z,6.10
2019-01-09T15:32:58.568Z,6.00
2019-01-09T15:35:29.707Z,6.00
2019-01-09T15:38:02.258Z,5.90
2019-01-09T15:40:33.605Z,5.80
2019-01-09T15:43:04.901Z,5.70
2019-01-09T15:45:35.892Z,5.70
2019-01-09T15:48:07.689Z,5.60
2019-01-09T15:50:38.753Z,5.50
2019-01-09T15:53:10.031Z,5.40
2019-01-09T15:55:41.110Z,5.30
2019-01-09T15:58:22.151Z,5.30
2019-01-09T16:00:53.730Z,5.20
2019-01-09T16:03:24.607Z,5.20
2019-01-09T16:05:55.760Z,5.10
2019-01-09T16:08:26.339Z,5.10
2019-01-09T16:10:57.641Z,5.00
2019-01-09T16:13:29.851Z,5.00
2019-01-09T16:16:00.739Z,5.00
2019-01-09T16:18:32.045Z,5.00
2019-01-09T16:21:03.203Z,4.90
2019-01-09T16:23:34.300Z,4.90
2019-01-09T16:26:04.891Z,4.90
2019-01-09T16:28:35.886Z,4.90
2019-01-09T16:31:10.037Z,4.90
2019-01-09T16:33:41.082Z,4.90
2019-01-09T16:36:12.163Z,4.80
2019-01-09T16:38:43.417Z,4.80
2019-01-09T16:41:14.362Z,4.80
2019-01-09T16:43:45.396Z,4.90
2019-01-09T16:46:26.556Z,4.90
2019-01-09T16:48:57.934Z,4.90
2019-01-09T16:51:29.330Z,4.90
2019-01-09T16:54:00.018Z,4.90
2019-01-09T16:56:31.411Z,4.90
2019-01-09T16:59:12.536Z,4.90
2019-01-09T17:01:43.561Z,4.90
2019-01-09T17:04:14.845Z,4.80
2019-01-09T17:06:46.818Z,4.90
2019-01-09T17:09:17.869Z,4.90
2019-01-09T17:11:48.955Z,4.90
2019-01-09T17:14:20.304Z,4.80
2019-01-09T17:16:52.480Z,4.80
2019-01-09T17:19:24.767Z,4.80
2019-01-09T17:21:55.832Z,4.80
2019-01-09T17:24:27.047Z,4.70
2019-01-09T17:26:58.135Z,4.60
2019-01-09T17:29:33.831Z,4.60
2019-01-09T17:32:05.455Z,4.60
2019-01-09T17:34:36.907Z,4.60
2019-01-09T17:37:21.119Z,4.60
2019-01-09T17:39:51.812Z,4.50
2019-01-09T17:42:23.232Z,4.50
2019-01-09T17:44:54.114Z,4.40
2019-01-09T17:47:25.322Z,4.40
2019-01-09T17:49:56.605Z,4.30
2019-01-09T17:52:27.689Z,4.40
2019-01-09T17:55:00.032Z,4.40
2019-01-09T17:57:31.025Z,4.40
2019-01-09T18:00:01.844Z,4.40
2019-01-09T18:02:33.125Z,4.30
2019-01-09T18:05:05.456Z,4.30
2019-01-09T18:07:36.689Z,4.20
2019-01-09T18:10:10.164Z,4.20
2019-01-09T18:12:41.256Z,4.20
2019-01-09T18:15:12.304Z,4.30
2019-01-09T18:17:43.080Z,4.30
2019-01-09T18:20:18.486Z,4.30
2019-01-09T18:22:49.312Z,4.30
2019-01-09T18:25:24.650Z,4.20
2019-01-09T18:27:55.772Z,4.20
2019-01-09T18:30:31.370Z,4.20
2019-01-09T18:33:10.092Z,4.20
2019-01-09T18:35:59.206Z,4.20
2019-01-09T18:38:34.783Z,4.20
2019-01-09T18:41:19.476Z,4.20
2019-01-09T18:44:06.676Z,4.30
2019-01-09T18:47:12.377Z,4.30
2019-01-09T18:49:59.147Z,4.30
2019-01-09T18:52:49.858Z,4.30
2019-01-09T18:55:39.293Z,4.30
2019-01-09T18:58:20.536Z,4.30
2019-01-09T19:01:02.310Z,4.30
2019-01-09T19:03:43.189Z,4.30
2019-01-09T19:06:24.533Z,4.30
2019-01-09T19:08:55.797Z,4.30
2019-01-09T19:11:36.810Z,4.30
2019-01-09T19:14:07.805Z,4.30
2019-01-09T19:16:39.321Z,4.20
2019-01-09T19:19:10.409Z,4.20
2019-01-09T19:21:42.339Z,4.20
2019-01-09T19:24:13.853Z,4.10
2019-01-09T19:26:45.306Z,4.10
2019-01-09T19:29:34.820Z,4.00
2019-01-09T19:32:06.059Z,4.00
2019-01-09T19:34:37.704Z,4.00
2019-01-09T19:37:21.042Z,4.00
2019-01-09T19:39:53.005Z,3.90
2019-01-09T19:42:24.163Z,3.90
2019-01-09T19:44:55.822Z,3.90
2019-01-09T19:47:28.316Z,3.90
2019-01-09T19:49:58.937Z,3.90
2019-01-09T19:52:30.175Z,3.90
2019-01-09T19:55:01.167Z,3.90
2019-01-09T19:57:32.102Z,3.90
2019-01-09T20:00:02.917Z,3.90
2019-01-09T20:02:43.839Z,3.90
2019-01-09T20:05:15.208Z,3.90
2019-01-09T20:07:46.336Z,3.90
2019-01-09T20:10:21.736Z,3.90
2019-01-09T20:12:52.841Z,3.90
2019-01-09T20:15:34.119Z,3.90
2019-01-09T20:18:05.391Z,3.90
2019-01-09T20:20:36.828Z,3.90
2019-01-09T20:23:09.209Z,3.90
2019-01-09T20:25:40.507Z,3.90
2019-01-09T20:28:11.644Z,3.90
2019-01-09T20:30:42.952Z,3.90
2019-01-09T20:33:14.593Z,3.90
2019-01-09T20:35:46.377Z,3.90
2019-01-09T20:38:27.769Z,3.80
2019-01-09T20:40:58.642Z,3.80
2019-01-09T20:43:29.892Z,3.80
2019-01-09T20:46:10.919Z,3.80
2019-01-09T20:48:42.321Z,3.80
2019-01-09T20:51:13.835Z,3.70
2019-01-09T20:53:45.562Z,3.70
2019-01-09T20:56:16.686Z,3.70
2019-01-09T20:58:48.155Z,3.60
2019-01-09T21:01:19.352Z,3.60
2019-01-09T21:03:50.556Z,3.60
2019-01-09T21:06:31.533Z,3.60
2019-01-09T21:09:02.177Z,3.50
2019-01-09T21:11:33.463Z,3.50
2019-01-09T21:14:05.172Z,3.50
2019-01-09T21:16:35.859Z,3.50
2019-01-09T21:19:07.013Z,3.50
2019-01-09T21:21:37.639Z,3.40
2019-01-09T21:24:08.315Z,3.40
2019-01-09T21:26:39.959Z,3.30
2019-01-09T21:29:11.133Z,3.30
2019-01-09T21:31:42.049Z,3.30
2019-01-09T21:34:13.114Z,3.20
2019-01-09T21:36:45.126Z,3.20
2019-01-09T21:39:26.144Z,3.20
2019-01-09T21:41:57.340Z,3.10
2019-01-09T21:44:28.573Z,3.10
2019-01-09T21:46:59.795Z,3.10
2019-01-09T21:49:30.989Z,3.10
2019-01-09T21:52:01.990Z,3.10
2019-01-09T21:54:33.184Z,3.10
2019-01-09T21:57:04.796Z,3.00
2019-01-09T21:59:35.873Z,3.00
2019-01-09T22:02:06.907Z,3.00
2019-01-09T22:04:38.251Z,2.90
2019-01-09T22:07:09.442Z,2.80
2019-01-09T22:09:40.713Z,2.80
2019-01-09T22:12:12.385Z,2.80
2019-01-09T22:14:43.562Z,2.80
2019-01-09T22:17:14.566Z,2.80
2019-01-09T22:19:47.300Z,2.70
2019-01-09T22:22:18.048Z,2.70
2019-01-09T22:24:49.081Z,2.70
2019-01-09T22:27:20.902Z,2.70
2019-01-09T22:29:52.046Z,2.70
2019-01-09T22:32:35.845Z,2.70
2019-01-09T22:35:07.841Z,2.70
2019-01-09T22:37:39.080Z,2.70
2019-01-09T22:40:21.118Z,2.70
2019-01-09T22:42:50.582Z,2.70
2019-01-09T22:45:21.184Z,2.70
2019-01-09T22:47:52.767Z,2.70
2019-01-09T22:50:24.032Z,2.80
2019-01-09T22:52:54.932Z,2.80
2019-01-09T22:55:25.908Z,2.80
2019-01-09T22:57:56.933Z,2.70
2019-01-09T23:00:35.462Z,2.80
2019-01-09T23:03:10.576Z,2.80
2019-01-09T23:05:42.156Z,2.80
2019-01-09T23:08:14.835Z,2.80
2019-01-09T23:10:54.139Z,2.80
2019-01-09T23:13:28.463Z,2.70
2019-01-09T23:15:59.664Z,2.60
2019-01-09T23:18:30.712Z,2.60
2019-01-09T23:21:12.241Z,2.60
2019-01-09T23:23:43.691Z,2.60
2019-01-09T23:26:14.887Z,2.60
2019-01-09T23:28:45.489Z,2.60
2019-01-09T23:31:16.871Z,2.60
2019-01-09T23:33:58.322Z,2.60
2019-01-09T23:36:39.457Z,2.60
2019-01-09T23:39:10.748Z,2.60
2019-01-09T23:41:41.435Z,2.60
2019-01-09T23:44:12.647Z,2.60
2019-01-09T23:46:43.912Z,2.70
2019-01-09T23:49:14.953Z,2.70
2019-01-09T23:51:46.177Z,2.70
2019-01-09T23:54:27.063Z,2.70
2019-01-09T23:56:57.778Z,2.60
2019-01-09T23:59:29.116Z,2.60
